sensor_id;sensor_type;location;lat;lon;timestamp;P1;durP1;ratioP1;P2;durP2;ratioP2
11827;SDS011;5971;49.646;8.568;2023-08-01T00:01:44;10.40;;;4.80;;
11827;SDS011;5971;49.646;8.568;2023-08-01T00:04:46;9.10;;;4.25;;
11827;SDS011;5971;49.646;8.568;2023-08-01T00:07:47;9.32;;;4.07;;
11827;SDS011;5971;49.646;8.568;2023-08-01T00:10:48;9.32;;;4.40;;
11827;SDS011;5971;49.646;8.568;2023-08-01T00:13:50;6.97;;;3.95;;
11827;SDS011;5971;49.646;8.568;2023-08-01T00:16:51;10.82;;;5.32;;
11827;SDS011;5971;49.646;8.568;2023-08-01T00:19:52;9.82;;;4.40;;
11827;SDS011;5971;49.646;8.568;2023-08-01T00:22:56;10.75;;;4.25;;
11827;SDS011;5971;49.646;8.568;2023-08-01T00:25:58;8.82;;;4.35;;
11827;SDS011;5971;49.646;8.568;2023-08-01T00:28:59;10.00;;;4.68;;
11827;SDS011;5971;49.646;8.568;2023-08-01T00:32:00;9.80;;;4.53;;
11827;SDS011;5971;49.646;8.568;2023-08-01T00:35:02;9.65;;;4.68;;
11827;SDS011;5971;49.646;8.568;2023-08-01T00:38:04;8.63;;;4.53;;
11827;SDS011;5971;49.646;8.568;2023-08-01T00:41:05;12.32;;;4.63;;
11827;SDS011;5971;49.646;8.568;2023-08-01T00:44:06;12.88;;;4.60;;
11827;SDS011;5971;49.646;8.568;2023-08-01T00:47:08;10.52;;;4.57;;
11827;SDS011;5971;49.646;8.568;2023-08-01T00:50:10;9.48;;;4.50;;
11827;SDS011;5971;49.646;8.568;2023-08-01T00:53:12;9.98;;;5.18;;
11827;SDS011;5971;49.646;8.568;2023-08-01T00:56:14;11.32;;;4.47;;
11827;SDS011;5971;49.646;8.568;2023-08-01T00:59:15;10.77;;;4.22;;
11827;SDS011;5971;49.646;8.568;2023-08-01T01:02:17;10.95;;;4.47;;
11827;SDS011;5971;49.646;8.568;2023-08-01T01:05:19;11.88;;;4.63;;
11827;SDS011;5971;49.646;8.568;2023-08-01T01:08:21;9.95;;;5.03;;
11827;SDS011;5971;49.646;8.568;2023-08-01T01:11:22;12.77;;;4.88;;
11827;SDS011;5971;49.646;8.568;2023-08-01T01:14:24;12.63;;;4.90;;
11827;SDS011;5971;49.646;8.568;2023-08-01T01:17:25;10.10;;;4.75;;
11827;SDS011;5971;49.646;8.568;2023-08-01T01:20:30;12.10;;;4.35;;
11827;SDS011;5971;49.646;8.568;2023-08-01T01:23:31;11.25;;;4.38;;
11827;SDS011;5971;49.646;8.568;2023-08-01T01:26:34;9.35;;;4.78;;
11827;SDS011;5971;49.646;8.568;2023-08-01T01:29:35;11.55;;;4.70;;
11827;SDS011;5971;49.646;8.568;2023-08-01T01:32:37;14.10;;;4.43;;
11827;SDS011;5971;49.646;8.568;2023-08-01T01:35:38;8.93;;;4.03;;
11827;SDS011;5971;49.646;8.568;2023-08-01T01:38:40;9.40;;;4.25;;
11827;SDS011;5971;49.646;8.568;2023-08-01T01:41:41;10.48;;;4.47;;
11827;SDS011;5971;49.646;8.568;2023-08-01T01:44:42;8.63;;;4.57;;
11827;SDS011;5971;49.646;8.568;2023-08-01T01:47:43;10.27;;;4.00;;
11827;SDS011;5971;49.646;8.568;2023-08-01T01:50:45;8.10;;;3.72;;
11827;SDS011;5971;49.646;8.568;2023-08-01T01:53:46;8.95;;;3.97;;
11827;SDS011;5971;49.646;8.568;2023-08-01T01:56:48;12.32;;;4.15;;
11827;SDS011;5971;49.646;8.568;2023-08-01T01:59:49;9.25;;;4.30;;
11827;SDS011;5971;49.646;8.568;2023-08-01T02:02:50;11.30;;;4.78;;
11827;SDS011;5971;49.646;8.568;2023-08-01T02:05:52;9.63;;;4.35;;
11827;SDS011;5971;49.646;8.568;2023-08-01T02:08:53;10.43;;;4.55;;
11827;SDS011;5971;49.646;8.568;2023-08-01T02:11:55;9.27;;;4.72;;
11827;SDS011;5971;49.646;8.568;2023-08-01T02:14:56;11.30;;;4.50;;
11827;SDS011;5971;49.646;8.568;2023-08-01T02:17:58;8.93;;;4.40;;
11827;SDS011;5971;49.646;8.568;2023-08-01T02:20:59;10.90;;;3.85;;
11827;SDS011;5971;49.646;8.568;2023-08-01T02:24:00;9.73;;;4.50;;
11827;SDS011;5971;49.646;8.568;2023-08-01T02:27:02;9.07;;;4.57;;
11827;SDS011;5971;49.646;8.568;2023-08-01T02:30:03;10.98;;;4.47;;
11827;SDS011;5971;49.646;8.568;2023-08-01T02:33:06;12.27;;;5.13;;
11827;SDS011;5971;49.646;8.568;2023-08-01T02:36:07;10.65;;;4.95;;
11827;SDS011;5971;49.646;8.568;2023-08-01T02:39:09;11.10;;;4.60;;
11827;SDS011;5971;49.646;8.568;2023-08-01T02:42:10;11.35;;;4.63;;
11827;SDS011;5971;49.646;8.568;2023-08-01T02:45:11;9.13;;;4.07;;
11827;SDS011;5971;49.646;8.568;2023-08-01T02:48:13;9.27;;;4.18;;
11827;SDS011;5971;49.646;8.568;2023-08-01T02:51:14;10.00;;;4.10;;
11827;SDS011;5971;49.646;8.568;2023-08-01T02:54:15;11.07;;;4.50;;
11827;SDS011;5971;49.646;8.568;2023-08-01T02:57:17;10.38;;;4.90;;
11827;SDS011;5971;49.646;8.568;2023-08-01T03:00:18;11.20;;;4.68;;
11827;SDS011;5971;49.646;8.568;2023-08-01T03:03:20;8.95;;;4.03;;
11827;SDS011;5971;49.646;8.568;2023-08-01T03:06:22;11.95;;;4.40;;
11827;SDS011;5971;49.646;8.568;2023-08-01T03:09:24;12.10;;;3.90;;
11827;SDS011;5971;49.646;8.568;2023-08-01T03:12:25;8.23;;;3.78;;
11827;SDS011;5971;49.646;8.568;2023-08-01T03:15:27;12.05;;;4.72;;
11827;SDS011;5971;49.646;8.568;2023-08-01T03:18:28;11.65;;;4.45;;
11827;SDS011;5971;49.646;8.568;2023-08-01T03:21:33;12.25;;;4.45;;
11827;SDS011;5971;49.646;8.568;2023-08-01T03:24:34;13.85;;;5.18;;
11827;SDS011;5971;49.646;8.568;2023-08-01T03:27:36;12.18;;;4.90;;
11827;SDS011;5971;49.646;8.568;2023-08-01T03:30:37;9.60;;;4.47;;
11827;SDS011;5971;49.646;8.568;2023-08-01T03:33:39;10.15;;;5.00;;
11827;SDS011;5971;49.646;8.568;2023-08-01T03:36:40;10.25;;;4.43;;
11827;SDS011;5971;49.646;8.568;2023-08-01T03:39:42;9.73;;;4.35;;
11827;SDS011;5971;49.646;8.568;2023-08-01T03:42:43;12.18;;;4.63;;
11827;SDS011;5971;49.646;8.568;2023-08-01T03:45:45;11.05;;;4.63;;
11827;SDS011;5971;49.646;8.568;2023-08-01T03:48:46;11.18;;;4.65;;
11827;SDS011;5971;49.646;8.568;2023-08-01T03:51:48;10.07;;;4.28;;
11827;SDS011;5971;49.646;8.568;2023-08-01T03:54:49;12.02;;;4.75;;
11827;SDS011;5971;49.646;8.568;2023-08-01T03:57:50;12.90;;;4.68;;
11827;SDS011;5971;49.646;8.568;2023-08-01T04:00:52;13.05;;;5.18;;
11827;SDS011;5971;49.646;8.568;2023-08-01T04:03:53;12.55;;;4.60;;
11827;SDS011;5971;49.646;8.568;2023-08-01T04:06:55;10.43;;;4.30;;
11827;SDS011;5971;49.646;8.568;2023-08-01T04:09:56;9.18;;;4.55;;
11827;SDS011;5971;49.646;8.568;2023-08-01T04:12:57;8.43;;;4.35;;
11827;SDS011;5971;49.646;8.568;2023-08-01T04:15:59;10.30;;;4.30;;
11827;SDS011;5971;49.646;8.568;2023-08-01T04:19:02;11.75;;;4.35;;
11827;SDS011;5971;49.646;8.568;2023-08-01T04:22:03;10.27;;;4.78;;
11827;SDS011;5971;49.646;8.568;2023-08-01T04:25:05;10.98;;;5.50;;
11827;SDS011;5971;49.646;8.568;2023-08-01T04:28:06;9.82;;;4.75;;
11827;SDS011;5971;49.646;8.568;2023-08-01T04:31:07;13.43;;;4.43;;
11827;SDS011;5971;49.646;8.568;2023-08-01T04:34:09;13.32;;;4.45;;
11827;SDS011;5971;49.646;8.568;2023-08-01T04:37:10;15.38;;;4.80;;
11827;SDS011;5971;49.646;8.568;2023-08-01T04:40:12;13.68;;;5.22;;
11827;SDS011;5971;49.646;8.568;2023-08-01T04:43:13;12.75;;;4.90;;
11827;SDS011;5971;49.646;8.568;2023-08-01T04:46:15;11.32;;;4.22;;
11827;SDS011;5971;49.646;8.568;2023-08-01T04:49:16;11.50;;;4.82;;
11827;SDS011;5971;49.646;8.568;2023-08-01T04:52:17;14.57;;;4.53;;
11827;SDS011;5971;49.646;8.568;2023-08-01T04:55:19;13.02;;;4.47;;
11827;SDS011;5971;49.646;8.568;2023-08-01T04:58:20;14.75;;;5.65;;
11827;SDS011;5971;49.646;8.568;2023-08-01T05:01:22;9.18;;;4.38;;
11827;SDS011;5971;49.646;8.568;2023-08-01T05:04:23;10.95;;;4.30;;
11827;SDS011;5971;49.646;8.568;2023-08-01T05:07:25;8.35;;;3.28;;
11827;SDS011;5971;49.646;8.568;2023-08-01T05:10:26;10.43;;;3.88;;
11827;SDS011;5971;49.646;8.568;2023-08-01T05:13:27;11.15;;;4.55;;
11827;SDS011;5971;49.646;8.568;2023-08-01T05:16:29;10.13;;;3.90;;
11827;SDS011;5971;49.646;8.568;2023-08-01T05:19:30;9.13;;;3.58;;
11827;SDS011;5971;49.646;8.568;2023-08-01T05:22:32;9.32;;;3.63;;
11827;SDS011;5971;49.646;8.568;2023-08-01T05:25:33;8.27;;;4.07;;
11827;SDS011;5971;49.646;8.568;2023-08-01T05:28:34;10.02;;;4.50;;
11827;SDS011;5971;49.646;8.568;2023-08-01T05:31:36;9.20;;;4.07;;
11827;SDS011;5971;49.646;8.568;2023-08-01T05:34:40;8.82;;;4.15;;
11827;SDS011;5971;49.646;8.568;2023-08-01T05:37:42;10.38;;;4.78;;
11827;SDS011;5971;49.646;8.568;2023-08-01T05:40:43;12.05;;;4.53;;
11827;SDS011;5971;49.646;8.568;2023-08-01T05:43:46;11.88;;;5.75;;
11827;SDS011;5971;49.646;8.568;2023-08-01T05:46:48;12.20;;;4.65;;
11827;SDS011;5971;49.646;8.568;2023-08-01T05:49:49;12.25;;;4.32;;
11827;SDS011;5971;49.646;8.568;2023-08-01T05:52:50;12.07;;;4.93;;
11827;SDS011;5971;49.646;8.568;2023-08-01T05:55:52;9.88;;;4.07;;
11827;SDS011;5971;49.646;8.568;2023-08-01T05:58:53;9.98;;;4.15;;
11827;SDS011;5971;49.646;8.568;2023-08-01T06:01:55;14.38;;;5.07;;
11827;SDS011;5971;49.646;8.568;2023-08-01T06:04:56;15.07;;;4.55;;
11827;SDS011;5971;49.646;8.568;2023-08-01T06:07:58;10.88;;;4.05;;
11827;SDS011;5971;49.646;8.568;2023-08-01T06:10:59;9.52;;;3.92;;
11827;SDS011;5971;49.646;8.568;2023-08-01T06:14:01;9.18;;;3.83;;
11827;SDS011;5971;49.646;8.568;2023-08-01T06:17:02;8.35;;;3.80;;
11827;SDS011;5971;49.646;8.568;2023-08-01T06:20:04;9.93;;;3.55;;
11827;SDS011;5971;49.646;8.568;2023-08-01T06:23:06;9.13;;;3.95;;
11827;SDS011;5971;49.646;8.568;2023-08-01T06:26:07;7.80;;;3.17;;
11827;SDS011;5971;49.646;8.568;2023-08-01T06:29:08;9.80;;;4.05;;
11827;SDS011;5971;49.646;8.568;2023-08-01T06:32:10;10.00;;;3.78;;
11827;SDS011;5971;49.646;8.568;2023-08-01T06:35:12;7.97;;;3.88;;
11827;SDS011;5971;49.646;8.568;2023-08-01T06:38:13;7.50;;;3.85;;
11827;SDS011;5971;49.646;8.568;2023-08-01T06:41:15;9.00;;;4.18;;
11827;SDS011;5971;49.646;8.568;2023-08-01T06:44:16;11.63;;;4.05;;
11827;SDS011;5971;49.646;8.568;2023-08-01T06:47:18;11.02;;;4.15;;
11827;SDS011;5971;49.646;8.568;2023-08-01T06:50:19;9.57;;;4.22;;
11827;SDS011;5971;49.646;8.568;2023-08-01T06:53:21;9.85;;;3.28;;
11827;SDS011;5971;49.646;8.568;2023-08-01T06:56:22;8.02;;;4.10;;
11827;SDS011;5971;49.646;8.568;2023-08-01T06:59:23;9.82;;;3.90;;
11827;SDS011;5971;49.646;8.568;2023-08-01T07:02:25;6.93;;;3.45;;
11827;SDS011;5971;49.646;8.568;2023-08-01T07:05:26;8.63;;;3.50;;
11827;SDS011;5971;49.646;8.568;2023-08-01T07:08:28;8.23;;;4.00;;
11827;SDS011;5971;49.646;8.568;2023-08-01T07:11:29;10.00;;;3.53;;
11827;SDS011;5971;49.646;8.568;2023-08-01T07:14:30;7.00;;;3.72;;
11827;SDS011;5971;49.646;8.568;2023-08-01T07:17:32;7.97;;;3.50;;
11827;SDS011;5971;49.646;8.568;2023-08-01T07:20:33;9.13;;;3.42;;
11827;SDS011;5971;49.646;8.568;2023-08-01T07:23:34;7.75;;;3.53;;
11827;SDS011;5971;49.646;8.568;2023-08-01T07:26:37;7.47;;;3.03;;
11827;SDS011;5971;49.646;8.568;2023-08-01T07:29:38;4.22;;;2.10;;
11827;SDS011;5971;49.646;8.568;2023-08-01T07:32:40;5.10;;;2.50;;
11827;SDS011;5971;49.646;8.568;2023-08-01T07:35:43;4.97;;;1.90;;
11827;SDS011;5971;49.646;8.568;2023-08-01T07:38:44;4.90;;;2.78;;
11827;SDS011;5971;49.646;8.568;2023-08-01T07:41:46;4.85;;;2.13;;
11827;SDS011;5971;49.646;8.568;2023-08-01T07:44:47;4.80;;;2.40;;
11827;SDS011;5971;49.646;8.568;2023-08-01T07:47:48;4.28;;;1.83;;
11827;SDS011;5971;49.646;8.568;2023-08-01T07:50:50;4.90;;;1.90;;
11827;SDS011;5971;49.646;8.568;2023-08-01T07:53:53;5.00;;;2.20;;
11827;SDS011;5971;49.646;8.568;2023-08-01T07:56:54;7.28;;;2.35;;
11827;SDS011;5971;49.646;8.568;2023-08-01T07:59:56;10.75;;;2.33;;
11827;SDS011;5971;49.646;8.568;2023-08-01T08:02:57;6.00;;;2.42;;
11827;SDS011;5971;49.646;8.568;2023-08-01T08:05:59;6.72;;;2.65;;
11827;SDS011;5971;49.646;8.568;2023-08-01T08:09:00;4.90;;;2.53;;
11827;SDS011;5971;49.646;8.568;2023-08-01T08:12:01;4.18;;;1.60;;
11827;SDS011;5971;49.646;8.568;2023-08-01T08:15:03;3.10;;;1.40;;
11827;SDS011;5971;49.646;8.568;2023-08-01T08:18:04;3.25;;;1.20;;
11827;SDS011;5971;49.646;8.568;2023-08-01T08:21:06;3.13;;;1.02;;
11827;SDS011;5971;49.646;8.568;2023-08-01T08:24:07;3.28;;;1.20;;
11827;SDS011;5971;49.646;8.568;2023-08-01T08:27:09;3.83;;;1.27;;
11827;SDS011;5971;49.646;8.568;2023-08-01T08:30:10;2.63;;;1.10;;
11827;SDS011;5971;49.646;8.568;2023-08-01T08:33:17;3.13;;;1.20;;
11827;SDS011;5971;49.646;8.568;2023-08-01T08:36:19;3.28;;;1.20;;
11827;SDS011;5971;49.646;8.568;2023-08-01T08:39:20;3.08;;;1.00;;
11827;SDS011;5971;49.646;8.568;2023-08-01T08:42:21;3.40;;;1.20;;
11827;SDS011;5971;49.646;8.568;2023-08-01T08:45:23;2.30;;;1.10;;
11827;SDS011;5971;49.646;8.568;2023-08-01T08:48:25;2.72;;;1.02;;
11827;SDS011;5971;49.646;8.568;2023-08-01T08:51:27;3.05;;;1.20;;
11827;SDS011;5971;49.646;8.568;2023-08-01T08:54:29;2.55;;;1.02;;
11827;SDS011;5971;49.646;8.568;2023-08-01T08:57:31;2.88;;;1.05;;
11827;SDS011;5971;49.646;8.568;2023-08-01T09:00:33;2.80;;;1.00;;
11827;SDS011;5971;49.646;8.568;2023-08-01T09:03:34;2.38;;;1.50;;
11827;SDS011;5971;49.646;8.568;2023-08-01T09:06:45;1.70;;;1.17;;
11827;SDS011;5971;49.646;8.568;2023-08-01T09:09:50;2.22;;;0.70;;
11827;SDS011;5971;49.646;8.568;2023-08-01T09:12:51;1.65;;;0.80;;
11827;SDS011;5971;49.646;8.568;2023-08-01T09:15:53;1.88;;;0.80;;
11827;SDS011;5971;49.646;8.568;2023-08-01T09:18:55;2.42;;;0.60;;
11827;SDS011;5971;49.646;8.568;2023-08-01T09:21:56;1.50;;;0.90;;
11827;SDS011;5971;49.646;8.568;2023-08-01T09:24:58;1.77;;;0.88;;
11827;SDS011;5971;49.646;8.568;2023-08-01T09:31:03;1.65;;;0.80;;
11827;SDS011;5971;49.646;8.568;2023-08-01T09:34:05;1.70;;;0.82;;
11827;SDS011;5971;49.646;8.568;2023-08-01T09:37:06;1.73;;;1.15;;
11827;SDS011;5971;49.646;8.568;2023-08-01T09:40:08;1.58;;;1.00;;
11827;SDS011;5971;49.646;8.568;2023-08-01T09:43:10;2.45;;;1.40;;
11827;SDS011;5971;49.646;8.568;2023-08-01T09:46:12;1.95;;;0.90;;
11827;SDS011;5971;49.646;8.568;2023-08-01T09:49:14;2.13;;;1.38;;
11827;SDS011;5971;49.646;8.568;2023-08-01T09:52:26;1.80;;;1.27;;
11827;SDS011;5971;49.646;8.568;2023-08-01T09:55:34;2.38;;;1.48;;
11827;SDS011;5971;49.646;8.568;2023-08-01T09:58:35;2.80;;;1.23;;
11827;SDS011;5971;49.646;8.568;2023-08-01T10:01:38;3.10;;;1.40;;
11827;SDS011;5971;49.646;8.568;2023-08-01T10:04:39;2.20;;;1.33;;
11827;SDS011;5971;49.646;8.568;2023-08-01T10:07:42;2.10;;;0.90;;
11827;SDS011;5971;49.646;8.568;2023-08-01T10:10:44;2.33;;;0.80;;
11827;SDS011;5971;49.646;8.568;2023-08-01T10:13:47;1.70;;;1.05;;
11827;SDS011;5971;49.646;8.568;2023-08-01T10:16:48;2.78;;;0.90;;
11827;SDS011;5971;49.646;8.568;2023-08-01T10:19:50;2.00;;;1.25;;
11827;SDS011;5971;49.646;8.568;2023-08-01T10:22:52;2.25;;;0.88;;
11827;SDS011;5971;49.646;8.568;2023-08-01T10:25:53;1.60;;;0.80;;
11827;SDS011;5971;49.646;8.568;2023-08-01T10:28:55;1.27;;;0.70;;
11827;SDS011;5971;49.646;8.568;2023-08-01T10:32:00;2.00;;;0.85;;
11827;SDS011;5971;49.646;8.568;2023-08-01T10:35:01;3.05;;;1.40;;
11827;SDS011;5971;49.646;8.568;2023-08-01T10:38:03;2.80;;;1.13;;
11827;SDS011;5971;49.646;8.568;2023-08-01T10:41:05;1.80;;;1.00;;
11827;SDS011;5971;49.646;8.568;2023-08-01T10:47:08;2.17;;;1.00;;
11827;SDS011;5971;49.646;8.568;2023-08-01T10:50:16;1.50;;;0.90;;
11827;SDS011;5971;49.646;8.568;2023-08-01T10:53:17;1.73;;;0.93;;
11827;SDS011;5971;49.646;8.568;2023-08-01T10:56:19;2.60;;;0.98;;
11827;SDS011;5971;49.646;8.568;2023-08-01T10:59:21;3.40;;;1.23;;
11827;SDS011;5971;49.646;8.568;2023-08-01T11:02:23;1.83;;;1.08;;
11827;SDS011;5971;49.646;8.568;2023-08-01T11:05:26;3.55;;;1.15;;
11827;SDS011;5971;49.646;8.568;2023-08-01T11:08:39;3.08;;;1.00;;
11827;SDS011;5971;49.646;8.568;2023-08-01T11:11:41;2.72;;;1.20;;
11827;SDS011;5971;49.646;8.568;2023-08-01T11:14:42;1.90;;;1.30;;
11827;SDS011;5971;49.646;8.568;2023-08-01T11:17:49;2.08;;;0.90;;
11827;SDS011;5971;49.646;8.568;2023-08-01T11:20:50;2.83;;;0.90;;
11827;SDS011;5971;49.646;8.568;2023-08-01T11:23:52;1.83;;;0.98;;
11827;SDS011;5971;49.646;8.568;2023-08-01T11:26:54;1.75;;;0.90;;
11827;SDS011;5971;49.646;8.568;2023-08-01T11:29:56;2.00;;;0.80;;
11827;SDS011;5971;49.646;8.568;2023-08-01T11:32:57;1.73;;;0.80;;
11827;SDS011;5971;49.646;8.568;2023-08-01T11:35:59;2.65;;;1.00;;
11827;SDS011;5971;49.646;8.568;2023-08-01T11:39:01;2.00;;;0.95;;
11827;SDS011;5971;49.646;8.568;2023-08-01T11:42:03;1.92;;;0.80;;
11827;SDS011;5971;49.646;8.568;2023-08-01T11:45:10;1.73;;;0.93;;
11827;SDS011;5971;49.646;8.568;2023-08-01T11:48:13;1.90;;;1.15;;
11827;SDS011;5971;49.646;8.568;2023-08-01T11:51:14;2.35;;;1.00;;
11827;SDS011;5971;49.646;8.568;2023-08-01T11:54:16;3.22;;;0.98;;
11827;SDS011;5971;49.646;8.568;2023-08-01T11:57:22;2.17;;;1.08;;
11827;SDS011;5971;49.646;8.568;2023-08-01T12:00:24;2.38;;;1.05;;
11827;SDS011;5971;49.646;8.568;2023-08-01T12:03:25;2.70;;;1.58;;
11827;SDS011;5971;49.646;8.568;2023-08-01T12:06:30;3.17;;;1.77;;
11827;SDS011;5971;49.646;8.568;2023-08-01T12:09:32;2.15;;;1.00;;
11827;SDS011;5971;49.646;8.568;2023-08-01T12:12:43;3.33;;;1.33;;
11827;SDS011;5971;49.646;8.568;2023-08-01T12:15:44;2.47;;;1.10;;
11827;SDS011;5971;49.646;8.568;2023-08-01T12:18:47;3.42;;;1.83;;
11827;SDS011;5971;49.646;8.568;2023-08-01T12:22:00;2.05;;;0.98;;
11827;SDS011;5971;49.646;8.568;2023-08-01T12:25:02;2.03;;;0.95;;
11827;SDS011;5971;49.646;8.568;2023-08-01T12:28:03;2.65;;;1.50;;
11827;SDS011;5971;49.646;8.568;2023-08-01T12:31:08;2.97;;;1.40;;
11827;SDS011;5971;49.646;8.568;2023-08-01T12:34:09;1.85;;;1.33;;
11827;SDS011;5971;49.646;8.568;2023-08-01T12:37:10;2.88;;;1.50;;
11827;SDS011;5971;49.646;8.568;2023-08-01T12:40:12;2.38;;;1.20;;
11827;SDS011;5971;49.646;8.568;2023-08-01T12:43:13;2.35;;;1.15;;
11827;SDS011;5971;49.646;8.568;2023-08-01T12:46:15;2.20;;;1.10;;
11827;SDS011;5971;49.646;8.568;2023-08-01T12:49:17;2.58;;;1.10;;
11827;SDS011;5971;49.646;8.568;2023-08-01T12:52:22;2.92;;;1.05;;
11827;SDS011;5971;49.646;8.568;2023-08-01T12:55:24;2.83;;;1.02;;
11827;SDS011;5971;49.646;8.568;2023-08-01T12:58:26;2.55;;;1.10;;
11827;SDS011;5971;49.646;8.568;2023-08-01T13:01:27;3.08;;;1.20;;
11827;SDS011;5971;49.646;8.568;2023-08-01T13:04:29;2.92;;;1.30;;
11827;SDS011;5971;49.646;8.568;2023-08-01T13:07:31;2.80;;;1.10;;
11827;SDS011;5971;49.646;8.568;2023-08-01T13:10:36;3.40;;;1.90;;
11827;SDS011;5971;49.646;8.568;2023-08-01T13:13:38;3.10;;;1.95;;
11827;SDS011;5971;49.646;8.568;2023-08-01T13:16:40;3.35;;;1.50;;
11827;SDS011;5971;49.646;8.568;2023-08-01T13:19:42;3.60;;;1.38;;
11827;SDS011;5971;49.646;8.568;2023-08-01T13:22:48;3.38;;;1.20;;
11827;SDS011;5971;49.646;8.568;2023-08-01T13:25:49;3.90;;;1.50;;
11827;SDS011;5971;49.646;8.568;2023-08-01T13:28:51;2.85;;;1.42;;
11827;SDS011;5971;49.646;8.568;2023-08-01T13:31:52;2.88;;;1.30;;
11827;SDS011;5971;49.646;8.568;2023-08-01T13:34:54;3.78;;;1.60;;
11827;SDS011;5971;49.646;8.568;2023-08-01T13:37:55;3.00;;;1.48;;
11827;SDS011;5971;49.646;8.568;2023-08-01T13:40:58;3.88;;;1.17;;
11827;SDS011;5971;49.646;8.568;2023-08-01T13:44:00;2.65;;;0.90;;
11827;SDS011;5971;49.646;8.568;2023-08-01T13:47:01;2.25;;;1.13;;
11827;SDS011;5971;49.646;8.568;2023-08-01T13:50:04;2.42;;;1.13;;
11827;SDS011;5971;49.646;8.568;2023-08-01T13:53:06;2.70;;;1.50;;
11827;SDS011;5971;49.646;8.568;2023-08-01T13:56:11;3.13;;;1.60;;
11827;SDS011;5971;49.646;8.568;2023-08-01T13:59:13;3.00;;;1.40;;
11827;SDS011;5971;49.646;8.568;2023-08-01T14:02:15;2.80;;;1.25;;
11827;SDS011;5971;49.646;8.568;2023-08-01T14:05:16;3.17;;;1.25;;
11827;SDS011;5971;49.646;8.568;2023-08-01T14:08:19;3.95;;;1.70;;
11827;SDS011;5971;49.646;8.568;2023-08-01T14:11:20;2.30;;;1.67;;
11827;SDS011;5971;49.646;8.568;2023-08-01T14:14:22;3.20;;;1.15;;
11827;SDS011;5971;49.646;8.568;2023-08-01T14:17:23;2.95;;;1.83;;
11827;SDS011;5971;49.646;8.568;2023-08-01T14:20:25;2.25;;;1.10;;
11827;SDS011;5971;49.646;8.568;2023-08-01T14:23:26;2.30;;;1.42;;
11827;SDS011;5971;49.646;8.568;2023-08-01T14:26:28;3.45;;;1.33;;
11827;SDS011;5971;49.646;8.568;2023-08-01T14:29:29;3.10;;;1.95;;
11827;SDS011;5971;49.646;8.568;2023-08-01T14:32:30;3.92;;;1.73;;
11827;SDS011;5971;49.646;8.568;2023-08-01T14:35:32;2.72;;;1.70;;
11827;SDS011;5971;49.646;8.568;2023-08-01T14:38:34;2.10;;;1.15;;
11827;SDS011;5971;49.646;8.568;2023-08-01T14:41:35;4.13;;;1.27;;
11827;SDS011;5971;49.646;8.568;2023-08-01T14:44:56;2.70;;;1.05;;
11827;SDS011;5971;49.646;8.568;2023-08-01T14:47:58;2.20;;;1.27;;
11827;SDS011;5971;49.646;8.568;2023-08-01T14:50:59;3.15;;;1.23;;
11827;SDS011;5971;49.646;8.568;2023-08-01T14:54:01;3.30;;;1.30;;
11827;SDS011;5971;49.646;8.568;2023-08-01T14:57:02;2.22;;;1.10;;
11827;SDS011;5971;49.646;8.568;2023-08-01T15:00:04;2.67;;;1.48;;
11827;SDS011;5971;49.646;8.568;2023-08-01T15:03:06;3.00;;;1.23;;
11827;SDS011;5971;49.646;8.568;2023-08-01T15:06:09;2.25;;;1.27;;
11827;SDS011;5971;49.646;8.568;2023-08-01T15:09:10;2.60;;;1.35;;
11827;SDS011;5971;49.646;8.568;2023-08-01T15:12:12;3.60;;;1.27;;
11827;SDS011;5971;49.646;8.568;2023-08-01T15:15:13;3.30;;;1.35;;
11827;SDS011;5971;49.646;8.568;2023-08-01T15:18:15;3.22;;;1.15;;
11827;SDS011;5971;49.646;8.568;2023-08-01T15:21:16;4.65;;;1.35;;
11827;SDS011;5971;49.646;8.568;2023-08-01T15:24:17;2.72;;;1.92;;
11827;SDS011;5971;49.646;8.568;2023-08-01T15:27:19;3.03;;;1.50;;
11827;SDS011;5971;49.646;8.568;2023-08-01T15:30:20;2.88;;;1.10;;
11827;SDS011;5971;49.646;8.568;2023-08-01T15:33:21;4.43;;;1.15;;
11827;SDS011;5971;49.646;8.568;2023-08-01T15:36:25;3.70;;;1.08;;
11827;SDS011;5971;49.646;8.568;2023-08-01T15:39:27;2.47;;;1.30;;
11827;SDS011;5971;49.646;8.568;2023-08-01T15:42:28;3.45;;;1.13;;
11827;SDS011;5971;49.646;8.568;2023-08-01T15:45:29;2.60;;;1.27;;
11827;SDS011;5971;49.646;8.568;2023-08-01T15:48:31;2.70;;;1.20;;
11827;SDS011;5971;49.646;8.568;2023-08-01T15:51:33;3.25;;;1.20;;
11827;SDS011;5971;49.646;8.568;2023-08-01T15:54:34;4.93;;;1.50;;
11827;SDS011;5971;49.646;8.568;2023-08-01T15:57:36;3.58;;;1.67;;
11827;SDS011;5971;49.646;8.568;2023-08-01T16:00:37;3.17;;;1.63;;
11827;SDS011;5971;49.646;8.568;2023-08-01T16:03:42;3.25;;;1.33;;
11827;SDS011;5971;49.646;8.568;2023-08-01T16:06:43;4.30;;;1.45;;
11827;SDS011;5971;49.646;8.568;2023-08-01T16:09:45;2.95;;;1.60;;
11827;SDS011;5971;49.646;8.568;2023-08-01T16:12:47;4.25;;;1.50;;
11827;SDS011;5971;49.646;8.568;2023-08-01T16:15:48;3.17;;;1.60;;
11827;SDS011;5971;49.646;8.568;2023-08-01T16:18:51;2.47;;;1.38;;
11827;SDS011;5971;49.646;8.568;2023-08-01T16:21:52;2.58;;;1.30;;
11827;SDS011;5971;49.646;8.568;2023-08-01T16:24:53;3.40;;;1.17;;
11827;SDS011;5971;49.646;8.568;2023-08-01T16:27:55;2.90;;;1.10;;
11827;SDS011;5971;49.646;8.568;2023-08-01T16:30:56;2.70;;;1.20;;
11827;SDS011;5971;49.646;8.568;2023-08-01T16:33:57;3.53;;;1.30;;
11827;SDS011;5971;49.646;8.568;2023-08-01T16:36:59;4.20;;;1.23;;
11827;SDS011;5971;49.646;8.568;2023-08-01T16:40:02;3.45;;;1.25;;
11827;SDS011;5971;49.646;8.568;2023-08-01T16:43:04;2.85;;;1.10;;
11827;SDS011;5971;49.646;8.568;2023-08-01T16:46:06;3.65;;;1.35;;
11827;SDS011;5971;49.646;8.568;2023-08-01T16:49:07;3.90;;;1.33;;
11827;SDS011;5971;49.646;8.568;2023-08-01T16:52:23;3.50;;;1.17;;
11827;SDS011;5971;49.646;8.568;2023-08-01T16:55:24;2.70;;;1.60;;
11827;SDS011;5971;49.646;8.568;2023-08-01T16:58:26;3.20;;;1.00;;
11827;SDS011;5971;49.646;8.568;2023-08-01T17:01:27;1.98;;;1.08;;
11827;SDS011;5971;49.646;8.568;2023-08-01T17:04:28;3.35;;;1.52;;
11827;SDS011;5971;49.646;8.568;2023-08-01T17:07:30;2.20;;;1.00;;
11827;SDS011;5971;49.646;8.568;2023-08-01T17:10:33;3.38;;;1.02;;
11827;SDS011;5971;49.646;8.568;2023-08-01T17:13:34;3.08;;;1.27;;
11827;SDS011;5971;49.646;8.568;2023-08-01T17:16:36;2.03;;;1.10;;
11827;SDS011;5971;49.646;8.568;2023-08-01T17:19:37;2.88;;;1.30;;
11827;SDS011;5971;49.646;8.568;2023-08-01T17:22:39;3.42;;;1.15;;
11827;SDS011;5971;49.646;8.568;2023-08-01T17:25:40;2.90;;;1.10;;
11827;SDS011;5971;49.646;8.568;2023-08-01T17:28:42;3.05;;;1.27;;
11827;SDS011;5971;49.646;8.568;2023-08-01T17:31:43;2.80;;;1.52;;
11827;SDS011;5971;49.646;8.568;2023-08-01T17:34:45;3.55;;;1.52;;
11827;SDS011;5971;49.646;8.568;2023-08-01T17:37:46;2.58;;;1.13;;
11827;SDS011;5971;49.646;8.568;2023-08-01T17:40:48;2.95;;;1.65;;
11827;SDS011;5971;49.646;8.568;2023-08-01T17:43:49;2.45;;;1.17;;
11827;SDS011;5971;49.646;8.568;2023-08-01T17:46:51;4.80;;;1.50;;
11827;SDS011;5971;49.646;8.568;2023-08-01T17:49:53;2.38;;;1.33;;
11827;SDS011;5971;49.646;8.568;2023-08-01T17:52:55;2.92;;;1.13;;
11827;SDS011;5971;49.646;8.568;2023-08-01T17:55:56;3.40;;;1.40;;
11827;SDS011;5971;49.646;8.568;2023-08-01T17:58:57;2.88;;;1.10;;
11827;SDS011;5971;49.646;8.568;2023-08-01T18:01:59;3.83;;;1.42;;
11827;SDS011;5971;49.646;8.568;2023-08-01T18:05:00;3.22;;;1.25;;
11827;SDS011;5971;49.646;8.568;2023-08-01T18:08:02;3.88;;;1.33;;
11827;SDS011;5971;49.646;8.568;2023-08-01T18:11:08;3.78;;;1.60;;
11827;SDS011;5971;49.646;8.568;2023-08-01T18:14:11;2.88;;;1.40;;
11827;SDS011;5971;49.646;8.568;2023-08-01T18:17:14;2.90;;;1.75;;
11827;SDS011;5971;49.646;8.568;2023-08-01T18:20:15;5.85;;;1.70;;
11827;SDS011;5971;49.646;8.568;2023-08-01T18:23:17;5.90;;;1.63;;
11827;SDS011;5971;49.646;8.568;2023-08-01T18:26:22;3.83;;;1.67;;
11827;SDS011;5971;49.646;8.568;2023-08-01T18:29:24;5.07;;;1.45;;
11827;SDS011;5971;49.646;8.568;2023-08-01T18:32:25;3.72;;;1.40;;
11827;SDS011;5971;49.646;8.568;2023-08-01T18:35:26;3.45;;;1.70;;